Time;durP1;ratioP1;P1;durP2;ratioP2;P2;SDS_P1;SDS_P2;PMS_P1;PMS_P2;Temp;Humidity;BMP_temperature;BMP_pressure;BME280_temperature;BME280_humidity;BME280_pressure;Samples;Min_cycle;Max_cycle;Signal;HPM_P1;HPM_P2
2022/12/26 00:01:53;;;;;;;4.15;2.25;;;;;;;9.93;100.00;100082.75;5030032;28;20167;-65
2022/12/26 00:04:19;;;;;;;8.02;2.85;;;;;;;9.94;100.00;100081.63;5023656;28;20037;-66
2022/12/26 00:06:44;;;;;;;8.65;3.40;;;;;;;9.96;100.00;100077.44;5028145;28;20037;-66
2022/12/26 00:09:10;;;;;;;4.00;2.83;;;;;;;9.94;100.00;100085.09;5033553;28;20421;-68
2022/12/26 00:11:36;;;;;;;4.85;2.63;;;;;;;9.96;100.00;100082.81;5033232;28;20553;-66
2022/12/26 00:14:08;;;;;;;7.13;3.33;;;;;;;9.96;100.00;100092.78;5031301;28;20025;-66
2022/12/26 00:16:35;;;;;;;4.68;2.28;;;;;;;9.92;100.00;100087.38;5028901;28;20083;-66
2022/12/26 00:19:02;;;;;;;4.93;2.15;;;;;;;9.94;100.00;100079.72;5029742;28;20458;-67
2022/12/26 00:21:28;;;;;;;4.07;2.35;;;;;;;9.94;100.00;100079.72;5015382;28;20079;-65
2022/12/26 00:23:56;;;;;;;5.07;2.20;;;;;;;9.90;100.00;100088.84;5030042;28;20486;-68
2022/12/26 00:26:24;;;;;;;4.30;2.42;;;;;;;9.90;100.00;100089.63;5029595;28;20037;-65
2022/12/26 00:28:51;;;;;;;5.07;2.08;;;;;;;9.95;100.00;100083.94;5030208;28;20039;-66
2022/12/26 00:31:20;;;;;;;6.05;2.60;;;;;;;9.92;100.00;100081.97;5037902;28;20033;-68
2022/12/26 00:33:46;;;;;;;4.68;1.92;;;;;;;9.70;100.00;100079.34;5036836;28;20040;-67
2022/12/26 00:36:18;;;;;;;4.15;2.05;;;;;;;9.78;100.00;100092.53;5034239;28;20117;-67
2022/12/26 00:38:44;;;;;;;7.38;2.70;;;;;;;9.88;100.00;100077.69;5032940;28;20037;-66
2022/12/26 00:41:11;;;;;;;5.70;2.40;;;;;;;9.89;100.00;100082.69;5035321;28;20108;-66
2022/12/26 00:43:37;;;;;;;6.07;2.78;;;;;;;9.82;100.00;100087.22;5035145;28;20038;-66
2022/12/26 00:46:04;;;;;;;8.00;2.25;;;;;;;9.77;100.00;100106.34;5034645;28;20184;-66
2022/12/26 00:48:30;;;;;;;6.40;2.85;;;;;;;9.74;100.00;100110.53;5035678;28;20485;-68
2022/12/26 00:50:56;;;;;;;5.55;2.65;;;;;;;9.78;100.00;100122.13;5044900;28;20044;-68
2022/12/26 00:53:22;;;;;;;5.22;2.20;;;;;;;9.70;100.00;100111.59;5035246;28;20025;-68
2022/12/26 00:55:48;;;;;;;4.47;2.28;;;;;;;9.71;100.00;100107.78;5040017;28;20475;-67
2022/12/26 00:58:13;;;;;;;6.68;2.10;;;;;;;9.70;100.00;100095.47;5047877;28;20132;-67
2022/12/26 01:00:39;;;;;;;2.22;1.38;;;;;;;9.75;100.00;100103.25;5045561;28;20541;-68
2022/12/26 01:03:09;;;;;;;5.05;2.75;;;;;;;9.78;100.00;100097.13;5041133;28;20116;-68
2022/12/26 01:05:40;;;;;;;5.75;2.38;;;;;;;9.48;100.00;100089.03;5044085;28;20483;-67
2022/12/26 01:08:05;;;;;;;3.70;2.17;;;;;;;9.60;100.00;100102.25;5045159;28;20087;-68
2022/12/26 01:10:30;;;;;;;4.25;2.22;;;;;;;9.66;100.00;100098.13;5038200;28;20028;-67
2022/12/26 01:12:57;;;;;;;5.10;2.90;;;;;;;9.43;100.00;100086.63;5040431;28;20038;-68
2022/12/26 01:15:22;;;;;;;3.00;1.65;;;;;;;9.52;100.00;100092.56;5035113;28;20047;-68
2022/12/26 01:17:47;;;;;;;3.70;1.90;;;;;;;9.63;100.00;100103.44;5031451;28;20056;-68
2022/12/26 01:20:13;;;;;;;3.78;1.70;;;;;;;9.61;100.00;100105.72;5038851;28;20033;-68
2022/12/26 01:22:38;;;;;;;3.55;2.03;;;;;;;9.68;100.00;100103.13;5036741;28;20039;-68
2022/12/26 01:25:04;;;;;;;7.00;1.80;;;;;;;9.72;100.00;100107.44;5042152;28;20109;-68
2022/12/26 01:27:30;;;;;;;5.68;2.13;;;;;;;9.70;100.00;100106.22;5035530;28;20064;-69
2022/12/26 01:29:55;;;;;;;4.55;2.35;;;;;;;9.74;100.00;100101.69;5036472;28;20033;-68
2022/12/26 01:32:21;;;;;;;5.32;1.73;;;;;;;9.79;100.00;100106.75;5032445;28;20022;-67
2022/12/26 01:34:47;;;;;;;7.82;2.20;;;;;;;9.83;100.00;100094.16;5036005;28;20093;-66
2022/12/26 01:37:14;;;;;;;3.95;2.13;;;;;;;9.87;100.00;100089.59;5045186;28;20060;-67
2022/12/26 01:39:39;;;;;;;3.80;2.45;;;;;;;9.90;100.00;100089.63;5039050;28;20032;-67
2022/12/26 01:42:12;;;;;;;6.15;2.50;;;;;;;9.86;100.00;100094.19;5046636;28;20654;-67
2022/12/26 01:44:56;;;;;;;4.97;1.88;;;;;;;9.84;100.00;100101.06;5034184;28;20041;-67
2022/12/26 01:47:27;;;;;;;6.38;2.53;;;;;;;9.87;100.00;100094.97;5033756;28;20478;-67
2022/12/26 01:49:54;;;;;;;4.93;2.28;;;;;;;9.84;100.00;100106.44;5034473;28;20497;-67
2022/12/26 01:52:44;;;;;;;5.72;2.72;;;;;;;9.86;100.00;100104.16;5035477;28;20111;-67
2022/12/26 01:55:13;;;;;;;7.32;2.45;;;;;;;9.73;100.00;100105.53;5032155;28;20040;-67
2022/12/26 01:57:43;;;;;;;4.63;2.70;;;;;;;9.80;100.00;100098.31;5035364;28;20386;-68
2022/12/26 02:00:09;;;;;;;8.50;3.03;;;;;;;9.85;100.00;100094.56;5025834;28;20026;-66
2022/12/26 02:05:36;;;;;;;4.13;2.05;;;;;;;9.77;100.00;100106.34;5020955;28;20478;-68
2022/12/26 02:08:18;;;;;;;6.60;2.63;;;;;;;9.83;100.00;100104.91;5022483;28;20041;-67
2022/12/26 02:11:19;;;;;;;4.22;2.45;;;;;;;9.79;100.00;100101.38;5028962;28;20068;-67
2022/12/26 02:13:44;;;;;;;5.82;2.53;;;;;;;9.80;100.00;100111.00;5027260;28;20049;-68
2022/12/26 02:16:14;;;;;;;5.88;2.25;;;;;;;9.77;100.00;100115.19;5061777;28;20075;-68
2022/12/26 02:18:40;;;;;;;7.60;2.30;;;;;;;9.85;100.00;100116.81;5032149;28;20025;-67
2022/12/26 02:21:24;;;;;;;6.32;2.83;;;;;;;9.85;100.00;100111.44;5035082;28;20498;-66
2022/12/26 02:23:56;;;;;;;6.18;2.70;;;;;;;9.80;100.00;100121.75;5032972;28;20066;-66
2022/12/26 02:26:46;;;;;;;4.55;2.55;;;;;;;9.79;100.00;100122.91;5032775;28;20026;-65
2022/12/26 02:29:48;;;;;;;5.45;2.17;;;;;;;9.75;100.00;100125.53;5039040;28;20037;-67
2022/12/26 02:32:51;;;;;;;8.23;2.53;;;;;;;9.79;100.00;100120.22;5034602;28;20044;-67
2022/12/26 02:35:28;;;;;;;7.43;3.45;;;;;;;9.83;100.00;100116.41;5026874;28;20099;-66
2022/12/26 02:38:12;;;;;;;5.97;2.45;;;;;;;9.85;100.00;100114.13;5033593;28;20033;-67
2022/12/26 02:41:02;;;;;;;4.93;2.13;;;;;;;9.83;100.00;100121.03;5031227;28;20057;-65
2022/12/26 02:43:44;;;;;;;7.50;2.78;;;;;;;9.87;100.00;100119.19;5009748;28;20399;-67
2022/12/26 02:49:20;;;;;;;6.15;2.05;;;;;;;9.75;100.00;100124.75;5030529;28;20425;-67
2022/12/26 03:13:09;;;;;;;5.15;2.45;;;;;;;10.01;100.00;100106.69;4992115;28;20082;-66
2022/12/26 03:18:28;;;;;;;5.55;2.40;;;;;;;10.01;100.00;100111.28;5024629;28;20079;-66
2022/12/26 03:20:55;;;;;;;8.90;2.70;;;;;;;10.04;100.00;100102.50;5028583;28;20029;-65
2022/12/26 03:23:21;;;;;;;4.80;2.10;;;;;;;10.11;100.00;100113.38;5027083;28;20030;-67
2022/12/26 03:28:46;;;;;;;5.28;2.58;;;;;;;10.11;100.00;100112.59;5027846;28;20047;-66
2022/12/26 03:31:13;;;;;;;6.32;2.58;;;;;;;10.01;100.00;100119.34;5030875;28;20087;-66
2022/12/26 03:36:53;;;;;;;6.07;3.08;;;;;;;10.07;100.00;100115.22;5029162;28;20036;-66
2022/12/26 04:20:34;;;;;;;6.80;2.45;;;;;;;10.19;100.00;100112.34;5030973;28;20617;-66
2022/12/26 04:46:11;;;;;;;5.55;2.83;;;;;;;10.08;100.00;100132.13;5033854;28;20037;-66
2022/12/26 04:51:28;;;;;;;7.17;3.30;;;;;;;10.01;100.00;100125.53;5032383;28;20029;-66
2022/12/26 04:53:53;;;;;;;8.10;3.67;;;;;;;10.05;100.00;100130.94;5031300;28;20276;-66
2022/12/26 04:56:19;;;;;;;8.10;3.30;;;;;;;10.10;100.00;100125.28;5033399;28;20421;-66
2022/12/26 04:58:44;;;;;;;7.05;3.28;;;;;;;10.08;100.00;100126.75;5032711;28;20037;-66
2022/12/26 05:09:34;;;;;;;7.50;3.20;;;;;;;10.23;100.00;100129.31;5029093;28;20442;-66
2022/12/26 05:12:06;;;;;;;6.13;2.97;;;;;;;10.28;100.00;100128.97;5032718;28;20395;-66
2022/12/26 05:14:34;;;;;;;6.60;3.33;;;;;;;10.27;100.00;100134.72;5029029;28;20043;-66
2022/12/26 05:30:58;;;;;;;4.05;2.25;;;;;;;10.25;100.00;100137.78;5029298;28;20065;-66
2022/12/26 05:36:09;;;;;;;7.90;3.45;;;;;;;10.10;100.00;100154.88;5029878;28;20037;-65
2022/12/26 05:38:35;;;;;;;7.68;3.50;;;;;;;10.12;100.00;100147.22;5030799;28;20021;-66
2022/12/26 05:41:01;;;;;;;7.10;2.95;;;;;;;10.14;100.00;100149.53;5030991;28;20040;-66
2022/12/26 05:43:27;;;;;;;9.45;3.08;;;;;;;10.26;100.00;100141.25;5041758;28;20037;-67
2022/12/26 05:45:52;;;;;;;6.82;3.35;;;;;;;10.30;100.00;100134.75;5031570;28;20025;-66
2022/12/26 05:48:18;;;;;;;7.63;3.13;;;;;;;10.28;100.00;100131.66;5032883;28;20116;-66
2022/12/26 05:50:43;;;;;;;8.88;3.17;;;;;;;10.32;100.00;100143.25;5030456;28;20030;-67
2022/12/26 05:53:09;;;;;;;9.40;4.20;;;;;;;10.35;100.00;100142.53;5030439;28;20030;-66
2022/12/26 05:55:34;;;;;;;7.88;2.90;;;;;;;10.34;100.00;100130.19;5030837;28;20029;-66
2022/12/26 05:58:00;;;;;;;7.05;3.13;;;;;;;10.43;100.00;100133.38;5030420;28;20124;-66
2022/12/26 06:00:26;;;;;;;7.55;3.67;;;;;;;10.40;100.00;100117.97;5028858;28;20049;-66
2022/12/26 06:02:52;;;;;;;10.48;3.13;;;;;;;10.43;100.00;100119.16;5030396;28;20116;-66
2022/12/26 06:05:17;;;;;;;7.25;3.15;;;;;;;10.42;100.00;100126.47;5031739;28;20615;-66
2022/12/26 06:07:43;;;;;;;9.45;4.30;;;;;;;10.45;100.00;100133.78;5026491;28;20044;-66
2022/12/26 06:10:09;;;;;;;8.73;3.63;;;;;;;10.44;100.00;100134.94;5031900;28;20052;-66
2022/12/26 06:12:35;;;;;;;8.60;3.90;;;;;;;10.46;100.00;100138.06;5034853;28;20045;-66
2022/12/26 06:15:00;;;;;;;6.63;3.90;;;;;;;10.40;100.00;100133.34;5036152;28;20036;-66
2022/12/26 06:17:25;;;;;;;8.80;3.97;;;;;;;10.36;100.00;100127.13;5033075;28;20072;-66
2022/12/26 06:19:51;;;;;;;9.43;3.17;;;;;;;10.39;100.00;100129.13;5050154;28;20536;-66
2022/12/26 06:22:16;;;;;;;7.78;3.45;;;;;;;10.42;100.00;100133.75;5040935;28;20639;-66
2022/12/26 06:24:42;;;;;;;11.85;4.05;;;;;;;10.40;100.00;100127.97;5043715;28;20046;-66
2022/12/26 06:27:07;;;;;;;6.38;3.00;;;;;;;10.45;100.00;100141.88;5032871;28;20672;-66
2022/12/26 06:29:33;;;;;;;7.15;3.38;;;;;;;10.43;100.00;100136.06;5034711;28;20033;-66
2022/12/26 06:31:58;;;;;;;7.75;3.97;;;;;;;10.49;100.00;100139.25;5042559;28;20037;-67
2022/12/26 06:34:24;;;;;;;7.97;3.25;;;;;;;10.37;100.00;100137.56;5039092;28;20565;-66
2022/12/26 06:36:49;;;;;;;8.65;3.80;;;;;;;10.33;100.00;100139.44;5022873;28;20028;-66
2022/12/26 06:39:15;;;;;;;6.28;2.65;;;;;;;10.39;100.00;100146.06;5030032;28;20147;-66
2022/12/26 06:41:40;;;;;;;8.45;3.03;;;;;;;10.40;100.00;100136.03;5030878;28;20550;-65
2022/12/26 06:44:05;;;;;;;8.52;3.97;;;;;;;10.36;100.00;100146.75;5031017;28;20025;-66
2022/12/26 06:46:31;;;;;;;5.45;2.90;;;;;;;10.39;100.00;100154.13;5027002;28;20033;-66
2022/12/26 06:48:56;;;;;;;5.65;3.17;;;;;;;10.43;100.00;100148.78;5028604;28;20033;-66
2022/12/26 06:51:25;;;;;;;4.82;2.97;;;;;;;10.43;100.00;100154.16;5030379;28;20087;-66
2022/12/26 06:53:51;;;;;;;5.65;2.67;;;;;;;10.39;100.00;100159.50;5031097;28;20036;-66
2022/12/26 06:56:22;;;;;;;5.35;2.83;;;;;;;10.46;100.00;100158.81;5030447;28;20037;-66
2022/12/26 06:58:55;;;;;;;6.82;2.85;;;;;;;10.38;100.00;100152.56;5029793;28;20091;-66
2022/12/26 07:01:25;;;;;;;3.72;2.42;;;;;;;10.49;100.00;100156.16;5028608;28;20133;-66
2022/12/26 07:03:51;;;;;;;6.82;2.90;;;;;;;10.56;100.00;100169.72;5028151;28;20025;-66
2022/12/26 07:06:26;;;;;;;5.32;2.30;;;;;;;10.53;100.00;100166.97;5031001;28;20046;-66
2022/12/26 07:08:55;;;;;;;4.22;2.47;;;;;;;10.57;100.00;100189.31;5039784;28;20552;-65
2022/12/26 07:11:23;;;;;;;6.68;3.03;;;;;;;10.58;100.00;100188.19;5048288;28;20099;-66
2022/12/26 07:13:49;;;;;;;5.97;2.80;;;;;;;10.59;100.00;100187.03;5034038;28;20041;-66
2022/12/26 07:16:14;;;;;;;5.78;2.88;;;;;;;10.52;100.00;100179.66;5028559;28;20033;-66
2022/12/26 07:18:40;;;;;;;6.07;3.05;;;;;;;10.61;100.00;100188.22;5030365;28;20040;-66
2022/12/26 07:21:13;;;;;;;6.00;2.20;;;;;;;10.59;100.00;100195.91;5030240;28;20533;-66
2022/12/26 07:23:39;;;;;;;6.03;2.90;;;;;;;10.63;100.00;100198.63;5028956;28;20040;-66
2022/12/26 07:26:05;;;;;;;5.20;2.83;;;;;;;10.65;100.00;100202.50;5030569;28;20091;-66
2022/12/26 07:28:31;;;;;;;4.93;2.38;;;;;;;10.69;100.00;100207.94;5030663;28;20034;-64
2022/12/26 07:30:59;;;;;;;5.60;2.70;;;;;;;10.67;100.00;100221.78;5023934;28;20030;-67
2022/12/26 07:33:25;;;;;;;5.30;2.60;;;;;;;10.64;100.00;100202.88;5028406;28;20177;-67
2022/12/26 07:35:51;;;;;;;6.18;2.83;;;;;;;10.65;100.00;100210.59;5024766;28;20037;-67
2022/12/26 07:38:16;;;;;;;6.18;3.20;;;;;;;10.62;100.00;100202.47;5030016;28;20371;-67
2022/12/26 07:40:41;;;;;;;7.82;2.83;;;;;;;10.60;100.00;100204.75;5029916;28;20070;-67
2022/12/26 07:43:07;;;;;;;6.45;2.80;;;;;;;10.58;100.00;100193.56;5029752;28;20080;-67
2022/12/26 07:45:32;;;;;;;4.43;2.28;;;;;;;10.64;100.00;100198.28;5029377;28;20032;-67
2022/12/26 07:47:58;;;;;;;5.35;2.63;;;;;;;10.67;100.00;100199.44;5037428;28;20033;-67
2022/12/26 07:50:25;;;;;;;4.32;2.40;;;;;;;10.67;100.00;100207.53;5031879;28;20475;-67
2022/12/26 07:52:52;;;;;;;4.32;2.53;;;;;;;10.69;100.00;100200.66;5027901;28;20033;-67
2022/12/26 07:55:17;;;;;;;6.38;3.05;;;;;;;10.70;100.00;100191.41;5030358;28;20032;-67
2022/12/26 07:57:43;;;;;;;6.43;3.03;;;;;;;10.59;100.00;100182.44;5030860;28;20029;-67
2022/12/26 08:00:09;;;;;;;8.15;3.78;;;;;;;10.52;100.00;100173.50;5021314;28;20033;-67
2022/12/26 08:02:37;;;;;;;9.45;3.95;;;;;;;10.60;100.00;100175.94;5030076;28;20390;-67
2022/12/26 08:05:03;;;;;;;7.40;3.38;;;;;;;10.61;100.00;100168.59;5025041;28;20037;-68
2022/12/26 08:07:28;;;;;;;6.05;3.42;;;;;;;10.63;100.00;100160.94;5030623;28;20127;-67
2022/12/26 08:09:54;;;;;;;7.22;4.05;;;;;;;10.61;100.00;100163.22;5027068;28;20040;-65
2022/12/26 08:12:20;;;;;;;9.30;3.97;;;;;;;10.65;100.00;100150.56;5028066;28;20526;-65
2022/12/26 08:14:46;;;;;;;5.85;3.30;;;;;;;10.66;100.00;100157.53;5029982;28;20033;-66
2022/12/26 08:17:13;;;;;;;7.45;3.85;;;;;;;10.71;100.00;100157.19;5030593;28;20025;-66
2022/12/26 08:19:38;;;;;;;9.18;4.50;;;;;;;10.71;100.00;100157.19;5026456;28;20096;-65
2022/12/26 08:22:04;;;;;;;10.13;4.55;;;;;;;10.74;100.00;100143.75;5028468;28;20116;-64
2022/12/26 08:24:30;;;;;;;8.75;4.20;;;;;;;10.76;100.00;100149.53;5028273;28;20095;-65
2022/12/26 08:26:55;;;;;;;11.63;4.55;;;;;;;10.73;100.00;100153.00;5034128;28;20038;-66
2022/12/26 08:29:21;;;;;;;11.00;4.88;;;;;;;10.72;100.00;100158.75;5029358;28;20029;-64
2022/12/26 08:31:46;;;;;;;8.48;3.72;;;;;;;10.68;100.00;100150.59;5030302;28;20053;-66
2022/12/26 08:34:12;;;;;;;7.07;4.32;;;;;;;10.71;100.00;100160.66;5034633;28;20747;-65
2022/12/26 08:36:38;;;;;;;10.00;4.68;;;;;;;10.70;100.00;100164.47;5038720;28;20471;-65
2022/12/26 08:39:03;;;;;;;14.60;5.88;;;;;;;10.70;100.00;100155.66;5030091;28;20537;-65
2022/12/26 08:41:29;;;;;;;12.77;5.68;;;;;;;10.69;100.00;100154.88;5033862;28;20120;-66
2022/12/26 08:44:16;;;;;;;9.10;4.15;;;;;;;10.75;100.00;100164.16;5033302;28;20031;-66
2022/12/26 08:46:43;;;;;;;10.80;4.82;;;;;;;10.82;100.00;100174.22;4971094;28;20046;-65
2022/12/26 08:49:09;;;;;;;8.75;4.03;;;;;;;10.81;100.00;100172.69;4963938;28;20035;-65
2022/12/26 08:51:34;;;;;;;9.05;4.05;;;;;;;10.81;100.00;100178.88;4966226;28;20047;-67
2022/12/26 08:54:00;;;;;;;10.75;4.75;;;;;;;10.89;100.00;100183.19;4971909;28;20039;-65
2022/12/26 08:56:26;;;;;;;12.68;5.18;;;;;;;10.94;100.00;100189.41;4971899;28;20047;-65
2022/12/26 08:58:52;;;;;;;10.15;5.30;;;;;;;10.89;100.00;100187.78;4978297;28;20054;-66
2022/12/26 09:01:24;;;;;;;11.48;5.32;;;;;;;10.85;100.00;100187.75;4967546;28;20080;-65
2022/12/26 09:03:54;;;;;;;14.05;5.05;;;;;;;10.94;100.00;100190.16;4968202;28;20046;-68
2022/12/26 09:06:20;;;;;;;8.68;4.85;;;;;;;10.95;100.00;100175.56;4958083;28;20073;-67
2022/12/26 09:08:45;;;;;;;8.98;4.40;;;;;;;11.03;100.00;100179.09;4954144;28;20062;-66
2022/12/26 09:11:13;;;;;;;12.10;5.40;;;;;;;11.09;100.00;100180.31;4972028;28;20093;-67
2022/12/26 09:13:41;;;;;;;10.88;5.22;;;;;;;11.05;100.00;100188.38;4971171;28;20129;-66
2022/12/26 09:16:10;;;;;;;13.38;5.60;;;;;;;11.04;100.00;100194.09;4974667;28;20035;-65
2022/12/26 09:18:36;;;;;;;14.65;6.32;;;;;;;11.03;100.00;100195.25;4954390;28;20034;-67
2022/12/26 09:21:03;;;;;;;10.52;5.63;;;;;;;11.05;100.00;100199.16;4973734;28;20491;-66
2022/12/26 09:23:28;;;;;;;11.68;5.32;;;;;;;11.00;100.00;100201.38;5001653;28;20091;-66
2022/12/26 09:25:54;;;;;;;15.05;5.97;;;;;;;11.00;100.00;100210.25;5038842;28;20025;-66
2022/12/26 09:28:20;;;;;;;17.30;5.88;;;;;;;10.96;100.00;100205.94;5042952;28;20444;-66
2022/12/26 09:30:46;;;;;;;17.05;5.70;;;;;;;10.89;100.00;100206.66;5038344;28;20502;-67
2022/12/26 09:33:11;;;;;;;12.38;5.70;;;;;;;10.93;100.00;100214.78;5034174;28;20033;-67
2022/12/26 09:35:40;;;;;;;15.27;5.88;;;;;;;10.88;100.00;100211.25;5035701;28;20091;-67
2022/12/26 09:38:06;;;;;;;12.38;6.05;;;;;;;10.98;100.00;100207.13;5042410;28;20025;-66
2022/12/26 09:40:45;;;;;;;10.90;4.70;;;;;;;11.05;100.00;100219.91;5038849;28;20032;-66
2022/12/26 09:43:55;;;;;;;15.57;7.10;;;;;;;11.04;100.00;100221.06;5042579;28;20481;-67
2022/12/26 09:46:46;;;;;;;12.38;5.55;;;;;;;10.94;100.00;100217.09;5032580;28;20029;-66
2022/12/26 09:49:20;;;;;;;12.88;4.72;;;;;;;11.00;100.00;100214.84;5028741;28;20132;-66
2022/12/26 09:51:51;;;;;;;9.05;4.15;;;;;;;10.93;100.00;100204.00;5027482;28;20025;-66
2022/12/26 09:54:43;;;;;;;9.55;4.13;;;;;;;10.93;100.00;100212.06;5031791;28;20092;-66
2022/12/26 09:57:18;;;;;;;11.00;4.82;;;;;;;10.95;100.00;100215.97;5033031;28;20040;-67
2022/12/26 09:59:54;;;;;;;12.98;5.13;;;;;;;10.85;100.00;100213.91;5038071;28;20065;-66
2022/12/26 10:02:22;;;;;;;13.80;5.15;;;;;;;10.89;100.00;100217.44;5041431;28;20063;-65
2022/12/26 10:04:48;;;;;;;12.60;5.00;;;;;;;10.86;100.00;100227.00;5030795;28;20064;-65
2022/12/26 10:07:16;;;;;;;14.52;5.53;;;;;;;10.86;100.00;100231.63;5029604;28;20662;-66
2022/12/26 10:09:56;;;;;;;10.25;4.60;;;;;;;10.97;100.00;100212.91;5024816;28;20028;-67
2022/12/26 10:12:34;;;;;;;10.27;4.60;;;;;;;11.05;100.00;100212.63;5034843;28;20037;-66
2022/12/26 10:15:06;;;;;;;11.02;4.70;;;;;;;11.16;100.00;100210.81;5036857;28;20059;-66
2022/12/26 10:17:39;;;;;;;9.15;4.18;;;;;;;11.16;100.00;100205.41;5036690;28;20116;-68
2022/12/26 10:20:32;;;;;;;9.57;4.22;;;;;;;11.19;100.00;100201.22;5039154;28;20030;-66
2022/12/26 10:23:18;;;;;;;15.75;4.82;;;;;;;11.08;100.00;100194.91;5028321;28;20041;-66
2022/12/26 10:26:10;;;;;;;9.77;3.85;;;;;;;11.10;100.00;100196.09;5032174;28;20035;-66
2022/12/26 10:28:59;;;;;;;;;;;;;;;11.16;100.00;100196.56;5031579;28;20052;-65
2022/12/26 10:31:41;;;;;;;7.93;4.25;;;;;;;11.18;100.00;100184.25;5030407;28;20015;-67
2022/12/26 10:34:26;;;;;;;15.35;5.13;;;;;;;11.16;100.00;100185.78;5031340;28;20032;-66
2022/12/26 10:36:59;;;;;;;9.15;3.42;;;;;;;11.24;100.00;100188.19;5044968;28;20045;-66
2022/12/26 10:39:46;;;;;;;11.07;4.57;;;;;;;11.28;100.00;100193.59;5027841;28;20030;-66
2022/12/26 10:42:18;;;;;;;10.32;4.78;;;;;;;11.32;100.00;100183.63;5027949;28;20025;-65
2022/12/26 10:44:43;;;;;;;11.38;4.78;;;;;;;11.33;100.00;100177.84;5030776;28;20108;-66
2022/12/26 10:47:21;;;;;;;12.80;4.60;;;;;;;11.27;100.00;100181.25;5029038;28;20423;-68
2022/12/26 10:49:48;;;;;;;9.70;4.43;;;;;;;11.08;100.00;100190.31;5029660;28;20367;-65
2022/12/26 10:52:16;;;;;;;8.07;4.18;;;;;;;11.12;100.00;100185.75;5039175;28;20083;-66
2022/12/26 10:54:44;;;;;;;9.40;4.82;;;;;;;11.19;100.00;100183.09;5022566;28;20112;-65
2022/12/26 10:57:10;;;;;;;12.68;4.80;;;;;;;11.27;100.00;100184.72;5046859;28;20119;-67
2022/12/26 10:59:48;;;;;;;8.07;3.53;;;;;;;11.37;100.00;100177.88;5047791;28;20494;-66
2022/12/26 11:02:20;;;;;;;9.00;3.85;;;;;;;11.41;100.00;100181.38;5034782;28;20036;-66
2022/12/26 11:05:09;;;;;;;7.22;3.70;;;;;;;11.39;100.00;100165.59;5026133;28;20037;-67
2022/12/26 11:07:39;;;;;;;10.02;4.22;;;;;;;11.41;100.00;100170.59;5027579;28;20033;-67
2022/12/26 11:10:18;;;;;;;8.88;3.75;;;;;;;11.45;100.00;100176.81;5039970;28;20017;-65
2022/12/26 11:12:51;;;;;;;12.85;4.65;;;;;;;11.52;100.00;100166.06;5037400;28;20477;-67
2022/12/26 11:15:29;;;;;;;12.93;5.18;;;;;;;11.43;100.00;100162.91;5018562;28;20103;-70
2022/12/26 11:18:25;;;;;;;11.13;5.03;;;;;;;11.24;100.00;100172.00;5033804;28;20037;-66
2022/12/26 11:20:51;;;;;;;11.07;4.45;;;;;;;11.20;100.00;100162.31;5034627;28;20162;-69
2022/12/26 11:23:27;;;;;;;8.93;4.03;;;;;;;11.27;100.00;100159.69;5036004;28;20025;-68
2022/12/26 11:25:55;;;;;;;10.15;4.13;;;;;;;11.31;100.00;100163.19;5039849;28;20048;-67
2022/12/26 11:28:29;;;;;;;9.43;4.20;;;;;;;11.43;100.00;100160.22;5037104;28;20167;-66
2022/12/26 11:30:55;;;;;;;9.63;4.28;;;;;;;11.38;100.00;100157.88;5033812;28;20033;-67
2022/12/26 11:33:27;;;;;;;10.52;4.38;;;;;;;11.30;100.00;100156.25;5034763;28;20039;-68
2022/12/26 11:36:08;;;;;;;8.63;3.83;;;;;;;11.22;100.00;100149.25;5030525;28;20487;-68
2022/12/26 11:39:00;;;;;;;12.50;4.43;;;;;;;11.31;100.00;100144.31;5026337;28;20033;-66
2022/12/26 11:41:31;;;;;;;12.32;4.57;;;;;;;11.31;100.00;100133.53;5027821;28;20442;-65
2022/12/26 11:44:09;;;;;;;11.25;4.07;;;;;;;11.40;100.00;100140.16;5035781;28;20406;-69
2022/12/26 11:46:53;;;;;;;7.00;3.47;;;;;;;11.39;100.00;100135.16;5036112;28;20044;-66
2022/12/26 11:49:31;;;;;;;10.98;4.80;;;;;;;11.22;100.00;100136.56;5031347;28;20033;-70
2022/12/26 11:51:58;;;;;;;8.63;3.75;;;;;;;11.32;100.00;100138.59;5022864;28;20762;-70
2022/12/26 11:54:25;;;;;;;9.00;3.22;;;;;;;11.43;100.00;100122.47;5031578;28;20033;-67
2022/12/26 11:57:10;;;;;;;9.07;4.10;;;;;;;11.35;100.00;100132.44;5029970;28;20120;-69
2022/12/26 11:59:35;;;;;;;10.68;4.75;;;;;;;11.33;100.00;100120.47;5030197;28;20033;-66
2022/12/26 12:02:18;;;;;;;10.48;3.60;;;;;;;11.33;100.00;100121.25;5030392;28;20463;-67
2022/12/26 12:04:48;;;;;;;10.38;3.83;;;;;;;11.37;100.00;100113.19;5027910;28;20036;-66
2022/12/26 12:07:44;;;;;;;7.60;4.33;;;;;;;11.36;100.00;100111.66;5030265;28;20097;-67
2022/12/26 12:10:31;;;;;;;7.65;3.35;;;;;;;11.50;100.00;100103.66;5030936;28;20107;-69
2022/12/26 12:13:20;;;;;;;9.30;4.03;;;;;;;11.36;100.00;100100.88;5030834;28;20448;-66
2022/12/26 12:15:56;;;;;;;7.68;4.07;;;;;;;11.26;100.00;100105.03;5049314;28;20026;-66
2022/12/26 12:18:49;;;;;;;6.47;3.58;;;;;;;11.36;100.00;100103.56;5025371;28;20136;-67
2022/12/26 12:21:38;;;;;;;8.55;3.45;;;;;;;11.45;100.00;100104.00;4981634;28;20575;-67
2022/12/26 12:24:09;;;;;;;11.75;3.85;;;;;;;11.31;100.00;100106.59;5024736;28;20041;-66
2022/12/26 12:26:59;;;;;;;7.20;3.90;;;;;;;11.36;100.00;100100.88;5033420;28;20034;-70
2022/12/26 12:29:39;;;;;;;7.90;3.33;;;;;;;11.25;100.00;100098.06;5029044;28;20045;-67
2022/12/26 12:32:24;;;;;;;8.73;3.67;;;;;;;11.30;100.00;100096.97;5035742;28;20142;-68
2022/12/26 12:35:14;;;;;;;9.73;3.10;;;;;;;11.42;100.00;100088.59;5029091;28;20025;-69
2022/12/26 12:37:51;;;;;;;7.18;3.67;;;;;;;11.40;100.00;100086.25;5045120;28;20045;-66
2022/12/26 12:40:32;;;;;;;5.90;3.22;;;;;;;11.53;100.00;100106.41;5032716;28;20091;-66
2022/12/26 12:43:16;;;;;;;8.50;3.92;;;;;;;11.50;100.00;100098.25;5034765;28;20505;-66
2022/12/26 12:45:45;;;;;;;5.63;3.13;;;;;;;11.52;100.00;100106.75;5031967;28;20398;-66
2022/12/26 12:48:31;;;;;;;5.95;3.28;;;;;;;11.54;100.00;100099.06;5029208;28;20040;-68
2022/12/26 12:51:15;;;;;;;7.97;3.78;;;;;;;11.29;100.00;100096.19;5029882;28;20064;-66
2022/12/26 12:54:03;;;;;;;9.07;3.22;;;;;;;11.29;100.00;100100.78;5012612;28;20048;-66
2022/12/26 12:56:32;;;;;;;6.22;3.17;;;;;;;11.38;100.00;100085.09;5022752;28;20069;-67
2022/12/26 12:59:36;;;;;;;6.60;2.97;;;;;;;11.44;100.00;100078.22;5029862;28;20389;-66
2022/12/26 13:02:13;;;;;;;6.65;4.05;;;;;;;11.38;100.00;100087.78;4992869;28;20068;-65
2022/12/26 13:04:44;;;;;;;4.78;2.72;;;;;;;11.38;100.00;100093.94;5037436;28;20033;-67
2022/12/26 13:07:17;;;;;;;6.35;3.00;;;;;;;11.39;100.00;100116.28;5036180;28;20033;-65
2022/12/26 13:09:51;;;;;;;7.57;3.28;;;;;;;11.25;100.00;100103.47;5047533;28;20049;-66
2022/12/26 13:12:24;;;;;;;6.05;3.00;;;;;;;11.36;100.00;100104.31;5046011;28;20039;-65
2022/12/26 13:14:56;;;;;;;5.95;2.70;;;;;;;11.44;100.00;100100.53;5034217;28;20479;-67
2022/12/26 13:17:28;;;;;;;5.07;2.80;;;;;;;11.45;100.00;100096.69;5044173;28;20041;-65
2022/12/26 13:20:17;;;;;;;6.43;3.10;;;;;;;11.36;100.00;100100.88;5036299;28;20032;-67
2022/12/26 13:25:38;;;;;;;4.97;2.35;;;;;;;11.34;100.00;100097.78;5035304;28;20497;-67
2022/12/26 13:28:10;;;;;;;;;;;;;;;11.41;100.00;100098.59;5038069;28;20116;-66
2022/12/26 13:30:37;;;;;;;10.30;2.95;;;;;;;11.24;100.00;100107.31;5033322;28;19916;-65
2022/12/26 13:33:04;;;;;;;5.25;2.58;;;;;;;11.27;100.00;100119.25;5033645;28;20049;-65
2022/12/26 13:35:53;;;;;;;3.53;2.03;;;;;;;11.12;100.00;100131.06;5026780;28;20061;-67
2022/12/26 13:38:20;;;;;;;2.88;1.77;;;;;;;11.16;100.00;100121.09;5013056;28;20041;-69
2022/12/26 13:43:53;;;;;;;2.05;1.73;;;;;;;11.16;100.00;100126.47;5021916;28;20643;-66
2022/12/26 13:44:23;;;;;;;2.83;1.63;;;;;;;11.36;100.00;100130.53;5024229;28;20764;-72
2022/12/26 13:46:48;;;;;;;2.03;1.70;;;;;;;11.39;100.00;100140.53;5028950;28;20032;-67
2022/12/26 13:49:35;;;;;;;4.30;1.83;;;;;;;11.20;100.00;100149.63;5032718;28;20413;-67